sensor_id;sensor_type;location;lat;lon;timestamp;P1;durP1;ratioP1;P2;durP2;ratioP2
75542;SDS011;64129;53.508;10.476;2023-06-19T00:01:01;8.95;;;6.03;;
75542;SDS011;64129;53.508;10.476;2023-06-19T00:03:28;6.18;;;5.65;;
75542;SDS011;64129;53.508;10.476;2023-06-19T00:05:54;7.28;;;6.15;;
75542;SDS011;64129;53.508;10.476;2023-06-19T00:08:21;6.00;;;5.40;;
75542;SDS011;64129;53.508;10.476;2023-06-19T00:10:47;6.72;;;6.10;;
75542;SDS011;64129;53.508;10.476;2023-06-19T00:13:14;6.60;;;5.90;;
75542;SDS011;64129;53.508;10.476;2023-06-19T00:15:41;7.13;;;6.00;;
75542;SDS011;64129;53.508;10.476;2023-06-19T00:18:07;6.68;;;6.00;;
75542;SDS011;64129;53.508;10.476;2023-06-19T00:20:34;6.68;;;6.13;;
75542;SDS011;64129;53.508;10.476;2023-06-19T00:23:02;7.15;;;6.28;;
75542;SDS011;64129;53.508;10.476;2023-06-19T00:25:28;7.75;;;7.05;;
75542;SDS011;64129;53.508;10.476;2023-06-19T00:27:55;6.57;;;6.05;;
75542;SDS011;64129;53.508;10.476;2023-06-19T00:30:22;7.32;;;6.63;;
75542;SDS011;64129;53.508;10.476;2023-06-19T00:32:51;6.72;;;6.07;;
75542;SDS011;64129;53.508;10.476;2023-06-19T00:37:46;6.38;;;5.78;;
75542;SDS011;64129;53.508;10.476;2023-06-19T00:40:31;6.90;;;6.30;;
75542;SDS011;64129;53.508;10.476;2023-06-19T00:42:59;7.38;;;6.05;;
75542;SDS011;64129;53.508;10.476;2023-06-19T00:45:26;7.40;;;6.72;;
75542;SDS011;64129;53.508;10.476;2023-06-19T00:47:55;6.97;;;6.38;;
75542;SDS011;64129;53.508;10.476;2023-06-19T00:50:24;6.93;;;6.22;;
75542;SDS011;64129;53.508;10.476;2023-06-19T00:52:51;7.18;;;6.40;;
75542;SDS011;64129;53.508;10.476;2023-06-19T00:55:18;7.40;;;6.10;;
75542;SDS011;64129;53.508;10.476;2023-06-19T00:57:45;7.65;;;6.78;;
75542;SDS011;64129;53.508;10.476;2023-06-19T01:00:12;7.65;;;6.95;;
75542;SDS011;64129;53.508;10.476;2023-06-19T01:02:39;7.18;;;6.47;;
75542;SDS011;64129;53.508;10.476;2023-06-19T01:05:05;7.20;;;6.50;;
75542;SDS011;64129;53.508;10.476;2023-06-19T01:10:21;7.75;;;6.93;;
75542;SDS011;64129;53.508;10.476;2023-06-19T01:12:57;7.47;;;6.75;;
75542;SDS011;64129;53.508;10.476;2023-06-19T01:15:32;7.07;;;6.47;;
75542;SDS011;64129;53.508;10.476;2023-06-19T01:18:00;7.63;;;6.70;;
75542;SDS011;64129;53.508;10.476;2023-06-19T01:20:28;7.53;;;6.82;;
75542;SDS011;64129;53.508;10.476;2023-06-19T01:22:55;6.88;;;6.22;;
75542;SDS011;64129;53.508;10.476;2023-06-19T01:25:23;8.10;;;6.40;;
75542;SDS011;64129;53.508;10.476;2023-06-19T01:27:50;7.28;;;6.57;;
75542;SDS011;64129;53.508;10.476;2023-06-19T01:30:17;7.05;;;6.35;;
75542;SDS011;64129;53.508;10.476;2023-06-19T01:33:06;7.20;;;6.43;;
75542;SDS011;64129;53.508;10.476;2023-06-19T01:35:38;8.05;;;6.57;;
75542;SDS011;64129;53.508;10.476;2023-06-19T01:38:08;7.57;;;6.32;;
75542;SDS011;64129;53.508;10.476;2023-06-19T01:40:36;7.90;;;7.10;;
75542;SDS011;64129;53.508;10.476;2023-06-19T01:43:03;8.57;;;7.13;;
75542;SDS011;64129;53.508;10.476;2023-06-19T01:47:59;7.80;;;7.00;;
75542;SDS011;64129;53.508;10.476;2023-06-19T01:50:25;7.35;;;6.65;;
75542;SDS011;64129;53.508;10.476;2023-06-19T01:52:52;7.57;;;6.88;;
75542;SDS011;64129;53.508;10.476;2023-06-19T01:55:19;8.05;;;7.15;;
75542;SDS011;64129;53.508;10.476;2023-06-19T01:57:46;7.10;;;6.40;;
75542;SDS011;64129;53.508;10.476;2023-06-19T02:00:12;8.55;;;6.72;;
75542;SDS011;64129;53.508;10.476;2023-06-19T02:02:39;7.68;;;6.97;;
75542;SDS011;64129;53.508;10.476;2023-06-19T02:05:06;7.65;;;6.30;;
75542;SDS011;64129;53.508;10.476;2023-06-19T02:07:33;7.60;;;6.80;;
75542;SDS011;64129;53.508;10.476;2023-06-19T02:09:59;7.80;;;6.63;;
75542;SDS011;64129;53.508;10.476;2023-06-19T02:12:26;7.82;;;6.97;;
75542;SDS011;64129;53.508;10.476;2023-06-19T02:14:52;8.00;;;6.47;;
75542;SDS011;64129;53.508;10.476;2023-06-19T02:17:19;7.72;;;6.22;;
75542;SDS011;64129;53.508;10.476;2023-06-19T02:19:45;7.90;;;7.10;;
75542;SDS011;64129;53.508;10.476;2023-06-19T02:22:12;8.13;;;7.32;;
75542;SDS011;64129;53.508;10.476;2023-06-19T02:24:38;6.93;;;6.22;;
75542;SDS011;64129;53.508;10.476;2023-06-19T02:27:05;6.75;;;6.05;;
75542;SDS011;64129;53.508;10.476;2023-06-19T02:29:32;7.63;;;6.75;;
75542;SDS011;64129;53.508;10.476;2023-06-19T02:32:01;8.73;;;6.38;;
75542;SDS011;64129;53.508;10.476;2023-06-19T02:34:28;6.97;;;6.25;;
75542;SDS011;64129;53.508;10.476;2023-06-19T02:36:55;7.00;;;6.40;;
75542;SDS011;64129;53.508;10.476;2023-06-19T02:39:22;7.32;;;6.68;;
75542;SDS011;64129;53.508;10.476;2023-06-19T02:41:49;7.60;;;6.90;;
75542;SDS011;64129;53.508;10.476;2023-06-19T02:44:16;7.03;;;6.43;;
75542;SDS011;64129;53.508;10.476;2023-06-19T02:46:42;7.10;;;6.50;;
75542;SDS011;64129;53.508;10.476;2023-06-19T02:49:09;8.32;;;6.82;;
75542;SDS011;64129;53.508;10.476;2023-06-19T02:51:36;8.52;;;7.20;;
75542;SDS011;64129;53.508;10.476;2023-06-19T02:54:03;7.32;;;6.63;;
75542;SDS011;64129;53.508;10.476;2023-06-19T02:56:29;7.40;;;6.75;;
75542;SDS011;64129;53.508;10.476;2023-06-19T02:58:56;7.97;;;7.18;;
75542;SDS011;64129;53.508;10.476;2023-06-19T03:01:22;8.13;;;7.30;;
75542;SDS011;64129;53.508;10.476;2023-06-19T03:03:49;7.65;;;6.90;;
75542;SDS011;64129;53.508;10.476;2023-06-19T03:06:18;7.25;;;6.40;;
75542;SDS011;64129;53.508;10.476;2023-06-19T03:08:45;7.80;;;6.95;;
75542;SDS011;64129;53.508;10.476;2023-06-19T03:11:12;8.35;;;6.60;;
75542;SDS011;64129;53.508;10.476;2023-06-19T03:13:58;7.53;;;6.82;;
75542;SDS011;64129;53.508;10.476;2023-06-19T03:16:25;8.00;;;7.20;;
75542;SDS011;64129;53.508;10.476;2023-06-19T03:18:52;8.52;;;7.65;;
75542;SDS011;64129;53.508;10.476;2023-06-19T03:21:20;8.32;;;7.43;;
75542;SDS011;64129;53.508;10.476;2023-06-19T03:23:49;8.35;;;7.22;;
75542;SDS011;64129;53.508;10.476;2023-06-19T03:26:20;8.50;;;7.70;;
75542;SDS011;64129;53.508;10.476;2023-06-19T03:28:47;7.90;;;7.10;;
75542;SDS011;64129;53.508;10.476;2023-06-19T03:31:14;8.23;;;7.30;;
75542;SDS011;64129;53.508;10.476;2023-06-19T03:33:41;8.57;;;7.68;;
75542;SDS011;64129;53.508;10.476;2023-06-19T03:36:08;8.50;;;7.70;;
75542;SDS011;64129;53.508;10.476;2023-06-19T03:38:47;7.80;;;6.82;;
75542;SDS011;64129;53.508;10.476;2023-06-19T03:41:17;8.02;;;7.20;;
75542;SDS011;64129;53.508;10.476;2023-06-19T03:43:44;7.82;;;7.13;;
75542;SDS011;64129;53.508;10.476;2023-06-19T03:46:10;8.18;;;7.43;;
75542;SDS011;64129;53.508;10.476;2023-06-19T03:48:37;10.18;;;7.40;;
75542;SDS011;64129;53.508;10.476;2023-06-19T03:51:03;8.45;;;7.38;;
75542;SDS011;64129;53.508;10.476;2023-06-19T03:53:30;8.52;;;7.72;;
75542;SDS011;64129;53.508;10.476;2023-06-19T03:55:56;8.95;;;7.57;;
75542;SDS011;64129;53.508;10.476;2023-06-19T03:58:23;8.18;;;7.45;;
75542;SDS011;64129;53.508;10.476;2023-06-19T04:00:51;8.13;;;7.20;;
75542;SDS011;64129;53.508;10.476;2023-06-19T04:03:17;8.43;;;7.45;;
75542;SDS011;64129;53.508;10.476;2023-06-19T04:05:44;8.43;;;7.57;;
75542;SDS011;64129;53.508;10.476;2023-06-19T04:08:11;10.27;;;8.27;;
75542;SDS011;64129;53.508;10.476;2023-06-19T04:10:41;8.63;;;7.45;;
75542;SDS011;64129;53.508;10.476;2023-06-19T04:13:08;8.57;;;7.80;;
75542;SDS011;64129;53.508;10.476;2023-06-19T04:15:35;8.82;;;7.93;;
75542;SDS011;64129;53.508;10.476;2023-06-19T04:18:02;7.80;;;7.05;;
75542;SDS011;64129;53.508;10.476;2023-06-19T04:20:29;7.95;;;7.25;;
75542;SDS011;64129;53.508;10.476;2023-06-19T04:22:56;9.60;;;8.48;;
75542;SDS011;64129;53.508;10.476;2023-06-19T04:25:22;8.38;;;7.55;;
75542;SDS011;64129;53.508;10.476;2023-06-19T04:27:49;8.63;;;7.72;;
75542;SDS011;64129;53.508;10.476;2023-06-19T04:30:15;8.77;;;7.97;;
75542;SDS011;64129;53.508;10.476;2023-06-19T04:32:42;9.57;;;7.88;;
75542;SDS011;64129;53.508;10.476;2023-06-19T04:35:09;9.15;;;8.00;;
75542;SDS011;64129;53.508;10.476;2023-06-19T04:37:36;10.57;;;8.32;;
75542;SDS011;64129;53.508;10.476;2023-06-19T04:40:02;9.20;;;8.30;;
75542;SDS011;64129;53.508;10.476;2023-06-19T04:42:34;10.82;;;8.75;;
75542;SDS011;64129;53.508;10.476;2023-06-19T04:45:00;9.18;;;8.27;;
75542;SDS011;64129;53.508;10.476;2023-06-19T04:47:27;10.02;;;8.95;;
75542;SDS011;64129;53.508;10.476;2023-06-19T04:50:02;10.65;;;8.55;;
75542;SDS011;64129;53.508;10.476;2023-06-19T04:52:28;8.90;;;8.00;;
75542;SDS011;64129;53.508;10.476;2023-06-19T04:54:55;8.32;;;7.53;;
75542;SDS011;64129;53.508;10.476;2023-06-19T04:57:21;9.10;;;8.20;;
75542;SDS011;64129;53.508;10.476;2023-06-19T04:59:48;8.82;;;8.02;;
75542;SDS011;64129;53.508;10.476;2023-06-19T05:02:14;10.15;;;8.63;;
75542;SDS011;64129;53.508;10.476;2023-06-19T05:04:41;9.57;;;8.68;;
75542;SDS011;64129;53.508;10.476;2023-06-19T05:07:10;9.23;;;8.35;;
75542;SDS011;64129;53.508;10.476;2023-06-19T05:09:38;9.27;;;8.32;;
75542;SDS011;64129;53.508;10.476;2023-06-19T05:12:05;9.30;;;8.35;;
75542;SDS011;64129;53.508;10.476;2023-06-19T05:14:32;9.90;;;9.00;;
75542;SDS011;64129;53.508;10.476;2023-06-19T05:16:58;11.10;;;8.48;;
75542;SDS011;64129;53.508;10.476;2023-06-19T05:19:25;9.18;;;8.27;;
75542;SDS011;64129;53.508;10.476;2023-06-19T05:21:51;9.65;;;8.73;;
75542;SDS011;64129;53.508;10.476;2023-06-19T05:24:18;9.75;;;8.85;;
75542;SDS011;64129;53.508;10.476;2023-06-19T05:26:44;9.25;;;8.35;;
75542;SDS011;64129;53.508;10.476;2023-06-19T05:29:11;10.82;;;8.60;;
75542;SDS011;64129;53.508;10.476;2023-06-19T05:31:38;10.75;;;9.60;;
75542;SDS011;64129;53.508;10.476;2023-06-19T05:34:04;9.15;;;8.35;;
75542;SDS011;64129;53.508;10.476;2023-06-19T05:36:31;9.20;;;8.32;;
75542;SDS011;64129;53.508;10.476;2023-06-19T05:38:57;9.23;;;8.43;;
75542;SDS011;64129;53.508;10.476;2023-06-19T05:41:24;9.20;;;8.30;;
75542;SDS011;64129;53.508;10.476;2023-06-19T05:43:50;9.60;;;8.60;;
75542;SDS011;64129;53.508;10.476;2023-06-19T05:46:17;10.95;;;8.93;;
75542;SDS011;64129;53.508;10.476;2023-06-19T05:48:43;9.70;;;8.70;;
75542;SDS011;64129;53.508;10.476;2023-06-19T05:51:10;9.75;;;8.75;;
75542;SDS011;64129;53.508;10.476;2023-06-19T05:53:36;9.68;;;8.43;;
75542;SDS011;64129;53.508;10.476;2023-06-19T05:56:05;8.73;;;7.85;;
75542;SDS011;64129;53.508;10.476;2023-06-19T05:58:32;10.05;;;9.00;;
75542;SDS011;64129;53.508;10.476;2023-06-19T06:00:58;10.63;;;9.63;;
75542;SDS011;64129;53.508;10.476;2023-06-19T06:03:25;9.77;;;8.35;;
75542;SDS011;64129;53.508;10.476;2023-06-19T06:05:51;9.90;;;9.00;;
75542;SDS011;64129;53.508;10.476;2023-06-19T06:08:18;9.70;;;8.77;;
75542;SDS011;64129;53.508;10.476;2023-06-19T06:10:45;10.02;;;9.13;;
75542;SDS011;64129;53.508;10.476;2023-06-19T06:13:11;10.65;;;8.75;;
75542;SDS011;64129;53.508;10.476;2023-06-19T06:15:38;10.43;;;9.43;;
75542;SDS011;64129;53.508;10.476;2023-06-19T06:18:04;10.65;;;9.02;;
75542;SDS011;64129;53.508;10.476;2023-06-19T06:20:31;10.45;;;9.27;;
75542;SDS011;64129;53.508;10.476;2023-06-19T06:22:57;10.25;;;9.32;;
75542;SDS011;64129;53.508;10.476;2023-06-19T06:25:24;9.35;;;8.45;;
75542;SDS011;64129;53.508;10.476;2023-06-19T06:27:51;10.10;;;9.10;;
75542;SDS011;64129;53.508;10.476;2023-06-19T06:30:17;9.55;;;8.23;;
75542;SDS011;64129;53.508;10.476;2023-06-19T06:32:45;9.60;;;8.70;;
75542;SDS011;64129;53.508;10.476;2023-06-19T06:35:11;10.55;;;9.45;;
75542;SDS011;64129;53.508;10.476;2023-06-19T06:37:39;10.32;;;9.32;;
75542;SDS011;64129;53.508;10.476;2023-06-19T06:40:06;9.27;;;8.48;;
75542;SDS011;64129;53.508;10.476;2023-06-19T06:42:37;10.27;;;8.88;;
75542;SDS011;64129;53.508;10.476;2023-06-19T06:45:05;10.73;;;9.63;;
75542;SDS011;64129;53.508;10.476;2023-06-19T06:47:33;10.55;;;9.55;;
75542;SDS011;64129;53.508;10.476;2023-06-19T06:50:01;10.77;;;9.52;;
75542;SDS011;64129;53.508;10.476;2023-06-19T06:52:27;10.10;;;9.10;;
75542;SDS011;64129;53.508;10.476;2023-06-19T06:54:54;11.35;;;9.93;;
75542;SDS011;64129;53.508;10.476;2023-06-19T06:57:20;10.10;;;9.07;;
75542;SDS011;64129;53.508;10.476;2023-06-19T06:59:47;16.73;;;10.82;;
75542;SDS011;64129;53.508;10.476;2023-06-19T07:02:13;10.60;;;9.60;;
75542;SDS011;64129;53.508;10.476;2023-06-19T07:04:40;11.00;;;9.32;;
75542;SDS011;64129;53.508;10.476;2023-06-19T07:07:06;11.55;;;9.55;;
75542;SDS011;64129;53.508;10.476;2023-06-19T07:09:34;12.00;;;10.13;;
75542;SDS011;64129;53.508;10.476;2023-06-19T07:12:01;11.20;;;10.20;;
75542;SDS011;64129;53.508;10.476;2023-06-19T07:14:30;11.65;;;10.45;;
75542;SDS011;64129;53.508;10.476;2023-06-19T07:16:57;10.90;;;9.85;;
75542;SDS011;64129;53.508;10.476;2023-06-19T07:19:23;11.45;;;10.25;;
75542;SDS011;64129;53.508;10.476;2023-06-19T07:21:50;11.60;;;10.40;;
75542;SDS011;64129;53.508;10.476;2023-06-19T07:24:17;11.07;;;9.80;;
75542;SDS011;64129;53.508;10.476;2023-06-19T07:26:45;11.80;;;10.05;;
75542;SDS011;64129;53.508;10.476;2023-06-19T07:29:13;12.15;;;10.23;;
75542;SDS011;64129;53.508;10.476;2023-06-19T07:31:39;11.05;;;9.75;;
75542;SDS011;64129;53.508;10.476;2023-06-19T07:34:08;11.23;;;10.13;;
75542;SDS011;64129;53.508;10.476;2023-06-19T07:36:35;11.32;;;10.05;;
75542;SDS011;64129;53.508;10.476;2023-06-19T07:39:01;10.82;;;9.82;;
75542;SDS011;64129;53.508;10.476;2023-06-19T07:41:28;10.60;;;9.60;;
75542;SDS011;64129;53.508;10.476;2023-06-19T07:43:55;12.90;;;10.15;;
75542;SDS011;64129;53.508;10.476;2023-06-19T07:46:21;10.75;;;9.73;;
75542;SDS011;64129;53.508;10.476;2023-06-19T07:48:48;11.57;;;10.38;;
75542;SDS011;64129;53.508;10.476;2023-06-19T07:51:15;11.52;;;10.52;;
75542;SDS011;64129;53.508;10.476;2023-06-19T07:53:41;12.38;;;10.02;;
75542;SDS011;64129;53.508;10.476;2023-06-19T07:56:09;11.75;;;10.65;;
75542;SDS011;64129;53.508;10.476;2023-06-19T07:58:36;12.18;;;11.07;;
75542;SDS011;64129;53.508;10.476;2023-06-19T08:01:03;11.10;;;10.02;;
75542;SDS011;64129;53.508;10.476;2023-06-19T08:03:29;11.20;;;10.10;;
75542;SDS011;64129;53.508;10.476;2023-06-19T08:05:56;11.15;;;10.05;;
75542;SDS011;64129;53.508;10.476;2023-06-19T08:08:24;11.20;;;9.93;;
75542;SDS011;64129;53.508;10.476;2023-06-19T08:10:50;10.75;;;9.65;;
75542;SDS011;64129;53.508;10.476;2023-06-19T08:13:17;12.93;;;9.65;;
75542;SDS011;64129;53.508;10.476;2023-06-19T08:15:44;11.02;;;9.98;;
75542;SDS011;64129;53.508;10.476;2023-06-19T08:18:11;12.05;;;10.82;;
75542;SDS011;64129;53.508;10.476;2023-06-19T08:20:38;11.05;;;10.07;;
75542;SDS011;64129;53.508;10.476;2023-06-19T08:23:04;13.38;;;10.73;;
75542;SDS011;64129;53.508;10.476;2023-06-19T08:25:31;15.20;;;11.07;;
75542;SDS011;64129;53.508;10.476;2023-06-19T08:27:58;11.05;;;10.05;;
75542;SDS011;64129;53.508;10.476;2023-06-19T08:30:24;11.57;;;10.38;;
75542;SDS011;64129;53.508;10.476;2023-06-19T08:32:51;11.23;;;10.18;;
75542;SDS011;64129;53.508;10.476;2023-06-19T08:35:18;11.27;;;10.10;;
75542;SDS011;64129;53.508;10.476;2023-06-19T08:37:44;10.90;;;9.82;;
75542;SDS011;64129;53.508;10.476;2023-06-19T08:40:11;11.90;;;10.60;;
75542;SDS011;64129;53.508;10.476;2023-06-19T08:42:38;10.85;;;9.98;;
75542;SDS011;64129;53.508;10.476;2023-06-19T08:47:34;10.93;;;9.82;;
75542;SDS011;64129;53.508;10.476;2023-06-19T08:50:01;10.77;;;9.57;;
75542;SDS011;64129;53.508;10.476;2023-06-19T08:52:27;10.48;;;9.55;;
75542;SDS011;64129;53.508;10.476;2023-06-19T08:54:54;10.75;;;9.70;;
75542;SDS011;64129;53.508;10.476;2023-06-19T08:57:21;10.40;;;9.50;;
75542;SDS011;64129;53.508;10.476;2023-06-19T08:59:48;10.32;;;9.43;;
75542;SDS011;64129;53.508;10.476;2023-06-19T09:02:16;10.70;;;9.77;;
75542;SDS011;64129;53.508;10.476;2023-06-19T09:04:43;10.77;;;9.85;;
75542;SDS011;64129;53.508;10.476;2023-06-19T09:07:09;10.32;;;9.43;;
75542;SDS011;64129;53.508;10.476;2023-06-19T09:09:44;10.23;;;9.32;;
75542;SDS011;64129;53.508;10.476;2023-06-19T09:12:14;10.55;;;9.55;;
75542;SDS011;64129;53.508;10.476;2023-06-19T09:14:46;9.35;;;8.55;;
75542;SDS011;64129;53.508;10.476;2023-06-19T09:17:17;9.35;;;8.52;;
75542;SDS011;64129;53.508;10.476;2023-06-19T09:19:47;9.80;;;8.90;;
75542;SDS011;64129;53.508;10.476;2023-06-19T09:22:16;9.60;;;8.77;;
75542;SDS011;64129;53.508;10.476;2023-06-19T09:24:44;9.73;;;8.82;;
75542;SDS011;64129;53.508;10.476;2023-06-19T09:27:12;8.77;;;7.97;;
75542;SDS011;64129;53.508;10.476;2023-06-19T09:29:40;9.27;;;8.32;;
75542;SDS011;64129;53.508;10.476;2023-06-19T09:34:44;9.05;;;8.25;;
75542;SDS011;64129;53.508;10.476;2023-06-19T09:37:11;8.20;;;7.50;;
75542;SDS011;64129;53.508;10.476;2023-06-19T09:39:38;7.97;;;7.18;;
75542;SDS011;64129;53.508;10.476;2023-06-19T09:42:07;7.68;;;6.97;;
75542;SDS011;64129;53.508;10.476;2023-06-19T09:44:41;7.30;;;6.70;;
75542;SDS011;64129;53.508;10.476;2023-06-19T09:47:21;7.63;;;7.03;;
75542;SDS011;64129;53.508;10.476;2023-06-19T09:49:53;8.88;;;8.07;;
75542;SDS011;64129;53.508;10.476;2023-06-19T09:52:21;8.77;;;7.97;;
75542;SDS011;64129;53.508;10.476;2023-06-19T09:54:50;8.48;;;7.65;;
75542;SDS011;64129;53.508;10.476;2023-06-19T09:57:18;7.85;;;7.15;;
75542;SDS011;64129;53.508;10.476;2023-06-19T09:59:46;8.45;;;7.65;;
75542;SDS011;64129;53.508;10.476;2023-06-19T10:02:16;8.55;;;7.85;;
75542;SDS011;64129;53.508;10.476;2023-06-19T10:04:45;7.90;;;7.20;;
75542;SDS011;64129;53.508;10.476;2023-06-19T10:07:16;9.32;;;7.75;;
75542;SDS011;64129;53.508;10.476;2023-06-19T10:10:00;8.65;;;7.95;;
75542;SDS011;64129;53.508;10.476;2023-06-19T10:15:19;7.97;;;7.28;;
75542;SDS011;64129;53.508;10.476;2023-06-19T10:17:52;7.60;;;6.90;;
75542;SDS011;64129;53.508;10.476;2023-06-19T10:20:30;7.38;;;6.78;;
75542;SDS011;64129;53.508;10.476;2023-06-19T10:25:45;8.05;;;7.35;;
75542;SDS011;64129;53.508;10.476;2023-06-19T10:30:57;8.02;;;7.22;;
75542;SDS011;64129;53.508;10.476;2023-06-19T10:33:35;8.75;;;7.95;;
75542;SDS011;64129;53.508;10.476;2023-06-19T10:36:16;9.00;;;8.20;;
75542;SDS011;64129;53.508;10.476;2023-06-19T10:38:44;7.65;;;6.95;;
75542;SDS011;64129;53.508;10.476;2023-06-19T10:41:17;8.50;;;7.70;;
75542;SDS011;64129;53.508;10.476;2023-06-19T10:43:54;8.38;;;7.60;;
75542;SDS011;64129;53.508;10.476;2023-06-19T10:46:23;8.38;;;7.57;;
75542;SDS011;64129;53.508;10.476;2023-06-19T10:48:51;8.73;;;7.93;;
75542;SDS011;64129;53.508;10.476;2023-06-19T10:51:18;8.90;;;8.10;;
75542;SDS011;64129;53.508;10.476;2023-06-19T10:53:45;8.35;;;7.65;;
75542;SDS011;64129;53.508;10.476;2023-06-19T10:56:12;9.27;;;8.48;;
75542;SDS011;64129;53.508;10.476;2023-06-19T10:58:38;8.25;;;7.55;;
75542;SDS011;64129;53.508;10.476;2023-06-19T11:01:05;9.48;;;7.25;;
75542;SDS011;64129;53.508;10.476;2023-06-19T11:03:31;8.88;;;7.97;;
75542;SDS011;64129;53.508;10.476;2023-06-19T11:05:58;8.20;;;7.50;;
75542;SDS011;64129;53.508;10.476;2023-06-19T11:08:25;8.18;;;7.47;;
75542;SDS011;64129;53.508;10.476;2023-06-19T11:10:52;7.80;;;7.10;;
75542;SDS011;64129;53.508;10.476;2023-06-19T11:13:19;8.55;;;7.85;;
75542;SDS011;64129;53.508;10.476;2023-06-19T11:15:47;8.65;;;7.85;;
75542;SDS011;64129;53.508;10.476;2023-06-19T11:18:18;8.80;;;8.10;;
75542;SDS011;64129;53.508;10.476;2023-06-19T11:23:38;8.73;;;7.93;;
75542;SDS011;64129;53.508;10.476;2023-06-19T11:26:03;8.65;;;7.75;;
75542;SDS011;64129;53.508;10.476;2023-06-19T11:28:31;8.75;;;8.07;;
75542;SDS011;64129;53.508;10.476;2023-06-19T11:30:58;8.02;;;7.30;;
75542;SDS011;64129;53.508;10.476;2023-06-19T11:33:27;8.48;;;7.70;;
75542;SDS011;64129;53.508;10.476;2023-06-19T11:35:54;8.73;;;7.93;;
75542;SDS011;64129;53.508;10.476;2023-06-19T11:38:23;9.05;;;8.07;;
75542;SDS011;64129;53.508;10.476;2023-06-19T11:40:51;9.23;;;8.25;;
75542;SDS011;64129;53.508;10.476;2023-06-19T11:43:24;8.77;;;7.88;;
75542;SDS011;64129;53.508;10.476;2023-06-19T11:45:52;9.50;;;8.60;;
75542;SDS011;64129;53.508;10.476;2023-06-19T11:48:25;8.90;;;8.18;;
75542;SDS011;64129;53.508;10.476;2023-06-19T11:50:53;8.90;;;8.10;;
75542;SDS011;64129;53.508;10.476;2023-06-19T11:53:20;8.88;;;8.00;;
75542;SDS011;64129;53.508;10.476;2023-06-19T11:55:48;8.45;;;7.45;;
75542;SDS011;64129;53.508;10.476;2023-06-19T11:58:15;8.63;;;7.95;;
75542;SDS011;64129;53.508;10.476;2023-06-19T12:00:42;8.85;;;8.05;;
75542;SDS011;64129;53.508;10.476;2023-06-19T12:03:09;8.82;;;8.10;;
75542;SDS011;64129;53.508;10.476;2023-06-19T12:05:36;9.45;;;8.65;;
75542;SDS011;64129;53.508;10.476;2023-06-19T12:10:30;8.52;;;7.72;;
75542;SDS011;64129;53.508;10.476;2023-06-19T12:12:57;9.40;;;8.60;;
75542;SDS011;64129;53.508;10.476;2023-06-19T12:15:24;9.55;;;8.65;;
75542;SDS011;64129;53.508;10.476;2023-06-19T12:17:51;9.15;;;8.18;;
75542;SDS011;64129;53.508;10.476;2023-06-19T12:20:18;8.85;;;8.00;;
75542;SDS011;64129;53.508;10.476;2023-06-19T12:22:45;8.40;;;7.53;;
75542;SDS011;64129;53.508;10.476;2023-06-19T12:25:12;8.77;;;8.07;;
75542;SDS011;64129;53.508;10.476;2023-06-19T12:27:38;8.50;;;7.70;;
75542;SDS011;64129;53.508;10.476;2023-06-19T12:30:05;8.63;;;7.93;;
75542;SDS011;64129;53.508;10.476;2023-06-19T12:32:32;8.57;;;7.78;;
75542;SDS011;64129;53.508;10.476;2023-06-19T12:34:58;10.82;;;8.40;;
75542;SDS011;64129;53.508;10.476;2023-06-19T12:37:25;8.93;;;8.10;;
75542;SDS011;64129;53.508;10.476;2023-06-19T12:39:51;8.23;;;7.53;;
75542;SDS011;64129;53.508;10.476;2023-06-19T12:42:18;8.40;;;7.60;;
75542;SDS011;64129;53.508;10.476;2023-06-19T12:44:45;8.43;;;7.72;;
75542;SDS011;64129;53.508;10.476;2023-06-19T12:47:11;8.65;;;7.85;;
75542;SDS011;64129;53.508;10.476;2023-06-19T12:49:38;8.45;;;7.70;;
75542;SDS011;64129;53.508;10.476;2023-06-19T12:52:05;8.70;;;8.00;;
75542;SDS011;64129;53.508;10.476;2023-06-19T12:54:32;8.65;;;7.68;;
75542;SDS011;64129;53.508;10.476;2023-06-19T12:56:59;9.52;;;8.13;;
75542;SDS011;64129;53.508;10.476;2023-06-19T12:59:25;9.18;;;8.27;;
75542;SDS011;64129;53.508;10.476;2023-06-19T13:01:52;8.95;;;8.15;;
75542;SDS011;64129;53.508;10.476;2023-06-19T13:04:19;7.93;;;7.32;;
75542;SDS011;64129;53.508;10.476;2023-06-19T13:06:45;8.18;;;7.50;;
75542;SDS011;64129;53.508;10.476;2023-06-19T13:09:12;8.45;;;7.65;;
75542;SDS011;64129;53.508;10.476;2023-06-19T13:11:38;8.38;;;7.68;;
75542;SDS011;64129;53.508;10.476;2023-06-19T13:14:05;7.47;;;6.75;;
75542;SDS011;64129;53.508;10.476;2023-06-19T13:16:31;6.82;;;6.32;;
75542;SDS011;64129;53.508;10.476;2023-06-19T13:19:09;6.75;;;6.15;;
75542;SDS011;64129;53.508;10.476;2023-06-19T13:21:36;7.30;;;6.60;;
75542;SDS011;64129;53.508;10.476;2023-06-19T13:24:02;6.88;;;6.10;;
75542;SDS011;64129;53.508;10.476;2023-06-19T13:26:29;6.72;;;5.82;;
75542;SDS011;64129;53.508;10.476;2023-06-19T13:28:56;6.63;;;5.65;;
75542;SDS011;64129;53.508;10.476;2023-06-19T13:31:25;7.57;;;5.97;;
75542;SDS011;64129;53.508;10.476;2023-06-19T13:33:51;6.50;;;5.90;;
75542;SDS011;64129;53.508;10.476;2023-06-19T13:36:18;6.47;;;5.88;;
75542;SDS011;64129;53.508;10.476;2023-06-19T13:38:45;6.00;;;5.40;;
75542;SDS011;64129;53.508;10.476;2023-06-19T13:43:39;8.27;;;5.75;;
75542;SDS011;64129;53.508;10.476;2023-06-19T13:46:06;6.00;;;5.40;;
75542;SDS011;64129;53.508;10.476;2023-06-19T13:48:34;9.15;;;5.65;;
75542;SDS011;64129;53.508;10.476;2023-06-19T13:51:01;7.20;;;6.60;;
75542;SDS011;64129;53.508;10.476;2023-06-19T13:53:27;6.32;;;5.82;;
75542;SDS011;64129;53.508;10.476;2023-06-19T13:55:56;6.32;;;5.82;;
75542;SDS011;64129;53.508;10.476;2023-06-19T13:58:22;6.47;;;5.85;;
75542;SDS011;64129;53.508;10.476;2023-06-19T14:00:49;5.72;;;5.22;;
75542;SDS011;64129;53.508;10.476;2023-06-19T14:03:15;5.32;;;4.85;;
75542;SDS011;64129;53.508;10.476;2023-06-19T14:05:42;5.50;;;4.60;;
75542;SDS011;64129;53.508;10.476;2023-06-19T14:08:10;5.38;;;4.88;;
75542;SDS011;64129;53.508;10.476;2023-06-19T14:10:36;6.30;;;4.82;;
75542;SDS011;64129;53.508;10.476;2023-06-19T14:13:03;4.95;;;4.55;;
75542;SDS011;64129;53.508;10.476;2023-06-19T14:15:29;4.35;;;3.95;;
75542;SDS011;64129;53.508;10.476;2023-06-19T14:17:56;4.05;;;3.67;;
75542;SDS011;64129;53.508;10.476;2023-06-19T14:20:22;12.32;;;3.83;;
75542;SDS011;64129;53.508;10.476;2023-06-19T14:22:49;3.42;;;3.13;;
75542;SDS011;64129;53.508;10.476;2023-06-19T14:25:15;3.92;;;3.53;;
75542;SDS011;64129;53.508;10.476;2023-06-19T14:27:42;4.57;;;3.38;;
75542;SDS011;64129;53.508;10.476;2023-06-19T14:30:09;4.80;;;3.45;;
75542;SDS011;64129;53.508;10.476;2023-06-19T14:32:35;3.70;;;3.40;;
75542;SDS011;64129;53.508;10.476;2023-06-19T14:35:03;3.35;;;3.05;;
75542;SDS011;64129;53.508;10.476;2023-06-19T14:37:31;3.75;;;2.92;;
75542;SDS011;64129;53.508;10.476;2023-06-19T14:39:58;4.30;;;3.38;;
75542;SDS011;64129;53.508;10.476;2023-06-19T14:42:24;5.75;;;3.28;;
75542;SDS011;64129;53.508;10.476;2023-06-19T14:44:51;4.47;;;3.50;;
75542;SDS011;64129;53.508;10.476;2023-06-19T14:47:17;4.55;;;4.15;;
75542;SDS011;64129;53.508;10.476;2023-06-19T14:49:44;5.00;;;3.80;;
75542;SDS011;64129;53.508;10.476;2023-06-19T14:52:11;6.70;;;4.63;;
75542;SDS011;64129;53.508;10.476;2023-06-19T14:54:37;4.63;;;4.07;;
75542;SDS011;64129;53.508;10.476;2023-06-19T14:57:04;5.15;;;3.97;;
75542;SDS011;64129;53.508;10.476;2023-06-19T14:59:30;4.22;;;3.50;;
75542;SDS011;64129;53.508;10.476;2023-06-19T15:01:57;3.80;;;3.40;;